Elgin, Pennsylvania
Current Conditions -  °F | °C
As of 10:51 AM on Thursday 23 Oct 2014 (Local Time) from KERI Reporting Station
Clear Clear  
Wind Chill: 55°   Ceiling: Unl
Heat Index: 55°   Visibility: 10mi
Dew Point: 43°   Wind: 9mph
Humidity: 64%   Direction: 10°N
Pressure: 30.16"   Gusts: NA
Location:  41.9°N, 79.74°W
Report Text: KERI 231451Z 01008KT 10SM CLR 13/06 A3016 RMK AO2 SLP217 T01280061 50003
Loading
Personal Weather Stations






























Interactive Weather Map
Tropical Storm Tracking
New forecast layout! Learn more

10-Day Weather Forecast

Advertisements
Track Severe Weather on mobile